sensor_id;sensor_type;location;lat;lon;timestamp;pressure;altitude;pressure_sealevel;temperature;humidity
76987;BME280;65922;50.086;8.598;2023-02-05T00:00:22;102859.99999999999;;;2.3;85.5
76987;BME280;65922;50.086;8.598;2023-02-05T00:01:22;102850;;;2.3;85.6
76987;BME280;65922;50.086;8.598;2023-02-05T00:02:22;102859.99999999999;;;2.3;85.6
76987;BME280;65922;50.086;8.598;2023-02-05T00:03:22;102859.99999999999;;;2.3;85.6
76987;BME280;65922;50.086;8.598;2023-02-05T00:04:22;102859.99999999999;;;2.5;85.4
76987;BME280;65922;50.086;8.598;2023-02-05T00:05:22;102859.99999999999;;;2.5;85.4
76987;BME280;65922;50.086;8.598;2023-02-05T00:06:22;102859.99999999999;;;2.6;85.4
76987;BME280;65922;50.086;8.598;2023-02-05T00:07:22;102850;;;2.7;85.2
76987;BME280;65922;50.086;8.598;2023-02-05T00:08:22;102859.99999999999;;;2.8;84.6
76987;BME280;65922;50.086;8.598;2023-02-05T00:09:22;102859.99999999999;;;2.9;84.3
76987;BME280;65922;50.086;8.598;2023-02-05T00:10:22;102850;;;2.9;84
76987;BME280;65922;50.086;8.598;2023-02-05T00:11:22;102859.99999999999;;;2.8;84
76987;BME280;65922;50.086;8.598;2023-02-05T00:12:22;102859.99999999999;;;2.8;84
76987;BME280;65922;50.086;8.598;2023-02-05T00:13:22;102859.99999999999;;;2.8;83.9
76987;BME280;65922;50.086;8.598;2023-02-05T00:14:22;102850;;;3;84.1
76987;BME280;65922;50.086;8.598;2023-02-05T00:15:22;102850;;;3.1;83.5
76987;BME280;65922;50.086;8.598;2023-02-05T00:16:23;102850;;;3.1;83.4
76987;BME280;65922;50.086;8.598;2023-02-05T00:17:22;102840.00000000001;;;3;83.4
76987;BME280;65922;50.086;8.598;2023-02-05T00:18:22;102840.00000000001;;;3;83.5
76987;BME280;65922;50.086;8.598;2023-02-05T00:19:22;102850;;;3;84
76987;BME280;65922;50.086;8.598;2023-02-05T00:20:22;102840.00000000001;;;3;83.7
76987;BME280;65922;50.086;8.598;2023-02-05T00:21:22;102840.00000000001;;;3.1;83.5
76987;BME280;65922;50.086;8.598;2023-02-05T00:22:22;102850;;;3;83.4
76987;BME280;65922;50.086;8.598;2023-02-05T00:23:22;102840.00000000001;;;3;83.4
76987;BME280;65922;50.086;8.598;2023-02-05T00:24:22;102850;;;3;83.4
76987;BME280;65922;50.086;8.598;2023-02-05T00:25:22;102850;;;3;83.5
76987;BME280;65922;50.086;8.598;2023-02-05T00:26:22;102850;;;3;84
76987;BME280;65922;50.086;8.598;2023-02-05T00:27:22;102840.00000000001;;;3;83.5
76987;BME280;65922;50.086;8.598;2023-02-05T00:28:22;102850;;;3.1;83.2
76987;BME280;65922;50.086;8.598;2023-02-05T00:29:22;102840.00000000001;;;3.1;83.1
76987;BME280;65922;50.086;8.598;2023-02-05T00:30:22;102840.00000000001;;;3.1;82.8
76987;BME280;65922;50.086;8.598;2023-02-05T00:31:22;102840.00000000001;;;3.1;83
76987;BME280;65922;50.086;8.598;2023-02-05T00:32:22;102840.00000000001;;;3;83.3
76987;BME280;65922;50.086;8.598;2023-02-05T00:33:22;102830;;;3;83.4
76987;BME280;65922;50.086;8.598;2023-02-05T00:34:22;102840.00000000001;;;3;83.2
76987;BME280;65922;50.086;8.598;2023-02-05T00:35:22;102830;;;2.9;83.5
76987;BME280;65922;50.086;8.598;2023-02-05T00:36:22;102840.00000000001;;;2.9;83.6
76987;BME280;65922;50.086;8.598;2023-02-05T00:37:22;102840.00000000001;;;2.9;83.7
76987;BME280;65922;50.086;8.598;2023-02-05T00:38:22;102850;;;2.9;83.4
76987;BME280;65922;50.086;8.598;2023-02-05T00:39:22;102830;;;2.9;83.5
76987;BME280;65922;50.086;8.598;2023-02-05T00:40:22;102830;;;2.8;83.3
76987;BME280;65922;50.086;8.598;2023-02-05T00:41:22;102830;;;2.7;83.4
76987;BME280;65922;50.086;8.598;2023-02-05T00:42:22;102830;;;2.7;83.4
76987;BME280;65922;50.086;8.598;2023-02-05T00:43:22;102820;;;2.7;83.7
76987;BME280;65922;50.086;8.598;2023-02-05T00:44:22;102820;;;2.5;83.9
76987;BME280;65922;50.086;8.598;2023-02-05T00:45:22;102820;;;2.5;84.4
76987;BME280;65922;50.086;8.598;2023-02-05T00:46:22;102809.99999999999;;;2.5;84.2
76987;BME280;65922;50.086;8.598;2023-02-05T00:47:22;102809.99999999999;;;2.4;84.5
76987;BME280;65922;50.086;8.598;2023-02-05T00:48:22;102809.99999999999;;;2.2;85.5
76987;BME280;65922;50.086;8.598;2023-02-05T00:49:22;102820;;;2.1;85.8
76987;BME280;65922;50.086;8.598;2023-02-05T00:50:22;102809.99999999999;;;2;86.3
76987;BME280;65922;50.086;8.598;2023-02-05T00:51:22;102830;;;2;86.4
76987;BME280;65922;50.086;8.598;2023-02-05T00:52:22;102820;;;1.9;86.4
76987;BME280;65922;50.086;8.598;2023-02-05T00:53:22;102820;;;2.1;86.5
76987;BME280;65922;50.086;8.598;2023-02-05T00:54:22;102820;;;2.1;86
76987;BME280;65922;50.086;8.598;2023-02-05T00:55:22;102820;;;2;85.9
76987;BME280;65922;50.086;8.598;2023-02-05T00:56:22;102820;;;2;86.3
76987;BME280;65922;50.086;8.598;2023-02-05T00:57:22;102820;;;1.8;86.2
76987;BME280;65922;50.086;8.598;2023-02-05T00:58:22;102820;;;1.8;86.3
76987;BME280;65922;50.086;8.598;2023-02-05T00:59:22;102820;;;1.9;86.8
76987;BME280;65922;50.086;8.598;2023-02-05T01:00:22;102820;;;1.7;87
76987;BME280;65922;50.086;8.598;2023-02-05T01:01:22;102820;;;1.6;87.4
76987;BME280;65922;50.086;8.598;2023-02-05T01:02:22;102830;;;1.5;87.6
76987;BME280;65922;50.086;8.598;2023-02-05T01:03:22;102830;;;1.3;87.8
76987;BME280;65922;50.086;8.598;2023-02-05T01:04:22;102830;;;1.3;88.3
76987;BME280;65922;50.086;8.598;2023-02-05T01:05:22;102830;;;1.6;88.7
76987;BME280;65922;50.086;8.598;2023-02-05T01:06:22;102830;;;1.7;88.6
76987;BME280;65922;50.086;8.598;2023-02-05T01:07:22;102830;;;1.5;88.1
76987;BME280;65922;50.086;8.598;2023-02-05T01:08:22;102820;;;1.4;88.2
76987;BME280;65922;50.086;8.598;2023-02-05T01:09:26;102820;;;1.3;88.5
76987;BME280;65922;50.086;8.598;2023-02-05T01:10:22;102820;;;1.3;88.8
76987;BME280;65922;50.086;8.598;2023-02-05T01:11:22;102809.99999999999;;;1.3;89.1
76987;BME280;65922;50.086;8.598;2023-02-05T01:12:22;102809.99999999999;;;1.3;89.2
76987;BME280;65922;50.086;8.598;2023-02-05T01:13:22;102809.99999999999;;;1.1;89.3
76987;BME280;65922;50.086;8.598;2023-02-05T01:14:22;102800;;;1.1;89.5
76987;BME280;65922;50.086;8.598;2023-02-05T01:15:22;102800;;;1;89.7
76987;BME280;65922;50.086;8.598;2023-02-05T01:16:22;102800;;;1;90
76987;BME280;65922;50.086;8.598;2023-02-05T01:17:22;102800;;;1;90.3
76987;BME280;65922;50.086;8.598;2023-02-05T01:18:22;102790.00000000001;;;1.1;90.5
76987;BME280;65922;50.086;8.598;2023-02-05T01:19:22;102790.00000000001;;;1;90.8
76987;BME280;65922;50.086;8.598;2023-02-05T01:20:22;102790.00000000001;;;1;90.9
76987;BME280;65922;50.086;8.598;2023-02-05T01:21:22;102800;;;1;91
76987;BME280;65922;50.086;8.598;2023-02-05T01:22:22;102790.00000000001;;;1.2;91.3
76987;BME280;65922;50.086;8.598;2023-02-05T01:23:22;102790.00000000001;;;1.1;91.2
76987;BME280;65922;50.086;8.598;2023-02-05T01:24:22;102790.00000000001;;;1;91.1
76987;BME280;65922;50.086;8.598;2023-02-05T01:25:22;102800;;;1;91.1
76987;BME280;65922;50.086;8.598;2023-02-05T01:26:22;102800;;;1;91.2
76987;BME280;65922;50.086;8.598;2023-02-05T01:27:22;102790.00000000001;;;1.1;91.4
76987;BME280;65922;50.086;8.598;2023-02-05T01:28:22;102800;;;1.3;91.3
76987;BME280;65922;50.086;8.598;2023-02-05T01:29:22;102790.00000000001;;;1.4;91.3
76987;BME280;65922;50.086;8.598;2023-02-05T01:30:22;102800;;;1.5;91.2
76987;BME280;65922;50.086;8.598;2023-02-05T01:31:22;102800;;;1.6;90.8
76987;BME280;65922;50.086;8.598;2023-02-05T01:32:22;102790.00000000001;;;1.6;90.8
76987;BME280;65922;50.086;8.598;2023-02-05T01:33:22;102790.00000000001;;;1.6;90.9
76987;BME280;65922;50.086;8.598;2023-02-05T01:34:22;102800;;;1.6;91.1
76987;BME280;65922;50.086;8.598;2023-02-05T01:35:22;102800;;;1.7;91.2
76987;BME280;65922;50.086;8.598;2023-02-05T01:36:22;102800;;;1.7;91.3
76987;BME280;65922;50.086;8.598;2023-02-05T01:37:22;102800;;;1.8;91.3
76987;BME280;65922;50.086;8.598;2023-02-05T01:38:22;102800;;;1.9;91.4
76987;BME280;65922;50.086;8.598;2023-02-05T01:39:22;102809.99999999999;;;2;91.3
76987;BME280;65922;50.086;8.598;2023-02-05T01:40:22;102800;;;1.9;91
76987;BME280;65922;50.086;8.598;2023-02-05T01:41:22;102790.00000000001;;;1.9;90.7
76987;BME280;65922;50.086;8.598;2023-02-05T01:42:23;102790.00000000001;;;2;90.3
76987;BME280;65922;50.086;8.598;2023-02-05T01:43:22;102790.00000000001;;;2.1;90.2
76987;BME280;65922;50.086;8.598;2023-02-05T01:44:22;102790.00000000001;;;2.1;90
76987;BME280;65922;50.086;8.598;2023-02-05T01:45:31;102790.00000000001;;;2.1;90
76987;BME280;65922;50.086;8.598;2023-02-05T01:46:23;102770;;;2.1;89.8
76987;BME280;65922;50.086;8.598;2023-02-05T01:47:22;102770;;;2.1;89.3
76987;BME280;65922;50.086;8.598;2023-02-05T01:48:23;102770;;;2.1;89.1
76987;BME280;65922;50.086;8.598;2023-02-05T01:49:24;102780;;;2.2;89.2
76987;BME280;65922;50.086;8.598;2023-02-05T01:50:24;102770;;;2.2;89.3
76987;BME280;65922;50.086;8.598;2023-02-05T01:51:22;102759.99999999999;;;2.2;88.9
76987;BME280;65922;50.086;8.598;2023-02-05T01:52:22;102750;;;2.3;88.5
76987;BME280;65922;50.086;8.598;2023-02-05T01:53:24;102750;;;2.3;88.1
76987;BME280;65922;50.086;8.598;2023-02-05T01:54:23;102759.99999999999;;;2.3;87.7
76987;BME280;65922;50.086;8.598;2023-02-05T01:55:22;102750;;;2.3;87.8
76987;BME280;65922;50.086;8.598;2023-02-05T01:56:23;102759.99999999999;;;2.3;87.8
76987;BME280;65922;50.086;8.598;2023-02-05T01:57:22;102750;;;2.3;87.8
76987;BME280;65922;50.086;8.598;2023-02-05T01:58:22;102759.99999999999;;;2.3;87.7
76987;BME280;65922;50.086;8.598;2023-02-05T01:59:23;102750;;;2.3;87.6
76987;BME280;65922;50.086;8.598;2023-02-05T02:00:22;102740.00000000001;;;2.3;87.8
76987;BME280;65922;50.086;8.598;2023-02-05T02:01:22;102759.99999999999;;;2.3;87.9
76987;BME280;65922;50.086;8.598;2023-02-05T02:02:22;102750;;;2.3;87.8
76987;BME280;65922;50.086;8.598;2023-02-05T02:03:22;102759.99999999999;;;2.3;87.8
76987;BME280;65922;50.086;8.598;2023-02-05T02:04:25;102759.99999999999;;;2.3;87.6
76987;BME280;65922;50.086;8.598;2023-02-05T02:05:22;102759.99999999999;;;2.3;87.6
76987;BME280;65922;50.086;8.598;2023-02-05T02:06:22;102759.99999999999;;;2.3;87.7
76987;BME280;65922;50.086;8.598;2023-02-05T02:07:23;102759.99999999999;;;2.4;88.1
76987;BME280;65922;50.086;8.598;2023-02-05T02:08:22;102750;;;2.3;88
76987;BME280;65922;50.086;8.598;2023-02-05T02:09:22;102750;;;2.3;88.1
76987;BME280;65922;50.086;8.598;2023-02-05T02:10:22;102750;;;2.3;88.1
76987;BME280;65922;50.086;8.598;2023-02-05T02:11:22;102740.00000000001;;;2.3;88
76987;BME280;65922;50.086;8.598;2023-02-05T02:12:23;102750;;;2.3;87.7
76987;BME280;65922;50.086;8.598;2023-02-05T02:13:22;102750;;;2.3;87.6
76987;BME280;65922;50.086;8.598;2023-02-05T02:14:22;102750;;;2.3;87.8
76987;BME280;65922;50.086;8.598;2023-02-05T02:15:22;102750;;;2.3;87.7
76987;BME280;65922;50.086;8.598;2023-02-05T02:16:22;102750;;;2.4;87.5
76987;BME280;65922;50.086;8.598;2023-02-05T02:17:22;102750;;;2.4;87.7
76987;BME280;65922;50.086;8.598;2023-02-05T02:18:22;102740.00000000001;;;2.4;87.7
76987;BME280;65922;50.086;8.598;2023-02-05T02:19:24;102740.00000000001;;;2.4;87.5
76987;BME280;65922;50.086;8.598;2023-02-05T02:20:23;102740.00000000001;;;2.4;87.4
76987;BME280;65922;50.086;8.598;2023-02-05T02:21:27;102730;;;2.4;87.4
76987;BME280;65922;50.086;8.598;2023-02-05T02:22:27;102740.00000000001;;;2.4;87.3
76987;BME280;65922;50.086;8.598;2023-02-05T02:23:24;102730;;;2.4;87.5
76987;BME280;65922;50.086;8.598;2023-02-05T02:24:29;102740.00000000001;;;2.4;87.3
76987;BME280;65922;50.086;8.598;2023-02-05T02:25:28;102720;;;2.4;87.5
76987;BME280;65922;50.086;8.598;2023-02-05T02:26:30;102730;;;2.4;87.4
76987;BME280;65922;50.086;8.598;2023-02-05T02:27:32;102730;;;2.4;87.5
76987;BME280;65922;50.086;8.598;2023-02-05T02:28:23;102730;;;2.3;87.9
76987;BME280;65922;50.086;8.598;2023-02-05T02:29:23;102730;;;2.3;88.2
76987;BME280;65922;50.086;8.598;2023-02-05T02:30:23;102730;;;2.3;88.4
76987;BME280;65922;50.086;8.598;2023-02-05T02:31:22;102730;;;2.4;88.4
76987;BME280;65922;50.086;8.598;2023-02-05T02:32:23;102720;;;2.3;88.5
76987;BME280;65922;50.086;8.598;2023-02-05T02:33:24;102730;;;2.4;88.5
76987;BME280;65922;50.086;8.598;2023-02-05T02:34:23;102730;;;2.3;88.3
76987;BME280;65922;50.086;8.598;2023-02-05T02:35:23;102730;;;2.3;88.2
76987;BME280;65922;50.086;8.598;2023-02-05T02:36:23;102720;;;2.3;88.2
76987;BME280;65922;50.086;8.598;2023-02-05T02:37:23;102720;;;2.4;87.8
76987;BME280;65922;50.086;8.598;2023-02-05T02:38:24;102720;;;2.4;87.6
76987;BME280;65922;50.086;8.598;2023-02-05T02:39:24;102720;;;2.4;87.5
76987;BME280;65922;50.086;8.598;2023-02-05T02:40:22;102709.99999999999;;;2.4;87.5
76987;BME280;65922;50.086;8.598;2023-02-05T02:41:23;102709.99999999999;;;2.4;87.5
76987;BME280;65922;50.086;8.598;2023-02-05T02:42:22;102709.99999999999;;;2.4;87.6
76987;BME280;65922;50.086;8.598;2023-02-05T02:43:23;102709.99999999999;;;2.4;87.8
76987;BME280;65922;50.086;8.598;2023-02-05T02:44:24;102709.99999999999;;;2.5;87.7
76987;BME280;65922;50.086;8.598;2023-02-05T02:45:22;102720;;;2.4;87.7
76987;BME280;65922;50.086;8.598;2023-02-05T02:46:23;102709.99999999999;;;2.5;87.6
76987;BME280;65922;50.086;8.598;2023-02-05T02:47:22;102720;;;2.4;87.5
76987;BME280;65922;50.086;8.598;2023-02-05T02:48:22;102720;;;2.4;87.5
76987;BME280;65922;50.086;8.598;2023-02-05T02:49:31;102720;;;2.5;87.4
76987;BME280;65922;50.086;8.598;2023-02-05T02:50:23;102720;;;2.5;87.3
76987;BME280;65922;50.086;8.598;2023-02-05T02:51:22;102730;;;2.5;87.4
76987;BME280;65922;50.086;8.598;2023-02-05T02:52:23;102709.99999999999;;;2.5;87.4
76987;BME280;65922;50.086;8.598;2023-02-05T02:53:23;102709.99999999999;;;2.5;87.3
76987;BME280;65922;50.086;8.598;2023-02-05T02:54:22;102700;;;2.5;87.3
76987;BME280;65922;50.086;8.598;2023-02-05T02:55:22;102709.99999999999;;;2.5;87.3
76987;BME280;65922;50.086;8.598;2023-02-05T02:56:22;102709.99999999999;;;2.5;87.3
76987;BME280;65922;50.086;8.598;2023-02-05T02:57:23;102700;;;2.5;87.2
76987;BME280;65922;50.086;8.598;2023-02-05T02:58:22;102700;;;2.5;87.3
76987;BME280;65922;50.086;8.598;2023-02-05T02:59:22;102700;;;2.5;88
76987;BME280;65922;50.086;8.598;2023-02-05T03:00:23;102690.00000000001;;;2.5;88.1
76987;BME280;65922;50.086;8.598;2023-02-05T03:01:22;102700;;;2.4;88
76987;BME280;65922;50.086;8.598;2023-02-05T03:02:22;102700;;;2.4;87.9
76987;BME280;65922;50.086;8.598;2023-02-05T03:03:22;102709.99999999999;;;2.4;87.9
76987;BME280;65922;50.086;8.598;2023-02-05T03:04:23;102700;;;2.4;88
76987;BME280;65922;50.086;8.598;2023-02-05T03:05:22;102700;;;2.4;88.1
76987;BME280;65922;50.086;8.598;2023-02-05T03:06:22;102690.00000000001;;;2.4;88.1
76987;BME280;65922;50.086;8.598;2023-02-05T03:07:23;102690.00000000001;;;2.4;87.9
76987;BME280;65922;50.086;8.598;2023-02-05T03:08:23;102690.00000000001;;;2.4;88
76987;BME280;65922;50.086;8.598;2023-02-05T03:09:23;102690.00000000001;;;2.4;88
76987;BME280;65922;50.086;8.598;2023-02-05T03:10:23;102690.00000000001;;;2.4;87.9
76987;BME280;65922;50.086;8.598;2023-02-05T03:11:22;102690.00000000001;;;2.4;87.9
76987;BME280;65922;50.086;8.598;2023-02-05T03:12:22;102690.00000000001;;;2.4;88.2
76987;BME280;65922;50.086;8.598;2023-02-05T03:13:22;102690.00000000001;;;2.4;88.5
76987;BME280;65922;50.086;8.598;2023-02-05T03:14:22;102690.00000000001;;;2.3;88.5
76987;BME280;65922;50.086;8.598;2023-02-05T03:15:22;102690.00000000001;;;2.4;88.5
76987;BME280;65922;50.086;8.598;2023-02-05T03:16:22;102690.00000000001;;;2.4;88.5
76987;BME280;65922;50.086;8.598;2023-02-05T03:17:22;102690.00000000001;;;2.4;88.5
76987;BME280;65922;50.086;8.598;2023-02-05T03:18:22;102690.00000000001;;;2.4;88.7
76987;BME280;65922;50.086;8.598;2023-02-05T03:19:22;102700;;;2.4;88.9
76987;BME280;65922;50.086;8.598;2023-02-05T03:20:23;102690.00000000001;;;2.4;89.1
76987;BME280;65922;50.086;8.598;2023-02-05T03:21:23;102690.00000000001;;;2.4;89.4
76987;BME280;65922;50.086;8.598;2023-02-05T03:22:22;102680;;;2.4;89.3
76987;BME280;65922;50.086;8.598;2023-02-05T03:23:28;102680;;;2.4;89.1
76987;BME280;65922;50.086;8.598;2023-02-05T03:24:22;102690.00000000001;;;2.4;89.2
76987;BME280;65922;50.086;8.598;2023-02-05T03:25:22;102690.00000000001;;;2.4;89.2
76987;BME280;65922;50.086;8.598;2023-02-05T03:26:23;102690.00000000001;;;2.5;89.3
76987;BME280;65922;50.086;8.598;2023-02-05T03:27:22;102690.00000000001;;;2.4;89.2
76987;BME280;65922;50.086;8.598;2023-02-05T03:28:22;102690.00000000001;;;2.4;89.2
76987;BME280;65922;50.086;8.598;2023-02-05T03:29:24;102690.00000000001;;;2.4;89.2
76987;BME280;65922;50.086;8.598;2023-02-05T03:30:22;102680;;;2.4;89
76987;BME280;65922;50.086;8.598;2023-02-05T03:31:23;102680;;;2.4;88.8
76987;BME280;65922;50.086;8.598;2023-02-05T03:32:26;102680;;;2.4;88.9
76987;BME280;65922;50.086;8.598;2023-02-05T03:33:26;102680;;;2.4;88.8
76987;BME280;65922;50.086;8.598;2023-02-05T03:34:26;102680;;;2.5;89
76987;BME280;65922;50.086;8.598;2023-02-05T03:35:25;102680;;;2.5;89.3
76987;BME280;65922;50.086;8.598;2023-02-05T03:36:24;102670;;;2.4;89.2
76987;BME280;65922;50.086;8.598;2023-02-05T03:37:24;102680;;;2.4;89.3
76987;BME280;65922;50.086;8.598;2023-02-05T03:38:27;102670;;;2.5;89.6
76987;BME280;65922;50.086;8.598;2023-02-05T03:39:23;102670;;;2.4;89.6
76987;BME280;65922;50.086;8.598;2023-02-05T03:40:25;102670;;;2.4;89.7
76987;BME280;65922;50.086;8.598;2023-02-05T03:41:25;102670;;;2.4;89.4
76987;BME280;65922;50.086;8.598;2023-02-05T03:42:26;102670;;;2.5;89
76987;BME280;65922;50.086;8.598;2023-02-05T03:43:26;102670;;;2.5;88.8
76987;BME280;65922;50.086;8.598;2023-02-05T03:44:25;102659.99999999999;;;2.5;88.6
76987;BME280;65922;50.086;8.598;2023-02-05T03:45:25;102670;;;2.5;88.6
76987;BME280;65922;50.086;8.598;2023-02-05T03:46:24;102680;;;2.5;88.5
76987;BME280;65922;50.086;8.598;2023-02-05T03:47:26;102670;;;2.5;88.6
76987;BME280;65922;50.086;8.598;2023-02-05T03:48:26;102670;;;2.5;89.1
76987;BME280;65922;50.086;8.598;2023-02-05T03:49:23;102680;;;2.5;89.3
76987;BME280;65922;50.086;8.598;2023-02-05T03:50:23;102670;;;2.5;89.3
76987;BME280;65922;50.086;8.598;2023-02-05T03:51:24;102659.99999999999;;;2.5;89.2
76987;BME280;65922;50.086;8.598;2023-02-05T03:52:24;102670;;;2.5;89.2
76987;BME280;65922;50.086;8.598;2023-02-05T03:53:22;102680;;;2.4;89.2
76987;BME280;65922;50.086;8.598;2023-02-05T03:54:24;102680;;;2.4;89.2
76987;BME280;65922;50.086;8.598;2023-02-05T03:55:22;102680;;;2.4;89.2
76987;BME280;65922;50.086;8.598;2023-02-05T03:56:23;102680;;;2.4;89.3
76987;BME280;65922;50.086;8.598;2023-02-05T03:57:23;102680;;;2.4;89.6
76987;BME280;65922;50.086;8.598;2023-02-05T03:58:23;102700;;;2.4;89.9
76987;BME280;65922;50.086;8.598;2023-02-05T03:59:22;102690.00000000001;;;2.4;89.9
76987;BME280;65922;50.086;8.598;2023-02-05T04:00:22;102700;;;2.5;89.7
76987;BME280;65922;50.086;8.598;2023-02-05T04:01:22;102709.99999999999;;;2.5;89.8
76987;BME280;65922;50.086;8.598;2023-02-05T04:02:22;102700;;;2.4;89.7
76987;BME280;65922;50.086;8.598;2023-02-05T04:03:22;102700;;;2.5;89.5
76987;BME280;65922;50.086;8.598;2023-02-05T04:04:22;102700;;;2.5;89.4
76987;BME280;65922;50.086;8.598;2023-02-05T04:05:22;102700;;;2.6;89.4
76987;BME280;65922;50.086;8.598;2023-02-05T04:06:22;102700;;;2.6;89.5
76987;BME280;65922;50.086;8.598;2023-02-05T04:07:22;102700;;;2.6;89.5
76987;BME280;65922;50.086;8.598;2023-02-05T04:08:22;102700;;;2.6;89.4
76987;BME280;65922;50.086;8.598;2023-02-05T04:09:22;102700;;;2.7;89.3
76987;BME280;65922;50.086;8.598;2023-02-05T04:10:22;102690.00000000001;;;2.6;89.3
76987;BME280;65922;50.086;8.598;2023-02-05T04:11:22;102690.00000000001;;;2.7;89.4
76987;BME280;65922;50.086;8.598;2023-02-05T04:12:22;102690.00000000001;;;2.7;89.4
76987;BME280;65922;50.086;8.598;2023-02-05T04:13:22;102690.00000000001;;;2.7;89.3
76987;BME280;65922;50.086;8.598;2023-02-05T04:14:22;102690.00000000001;;;2.7;88.9
76987;BME280;65922;50.086;8.598;2023-02-05T04:15:22;102690.00000000001;;;2.7;88.5
76987;BME280;65922;50.086;8.598;2023-02-05T04:16:22;102680;;;2.7;88.2
76987;BME280;65922;50.086;8.598;2023-02-05T04:17:22;102690.00000000001;;;2.7;88.2
76987;BME280;65922;50.086;8.598;2023-02-05T04:18:22;102680;;;2.7;88.1
76987;BME280;65922;50.086;8.598;2023-02-05T04:19:22;102680;;;2.7;88.4
76987;BME280;65922;50.086;8.598;2023-02-05T04:20:22;102680;;;2.7;88.7
76987;BME280;65922;50.086;8.598;2023-02-05T04:21:22;102690.00000000001;;;2.7;88.5
76987;BME280;65922;50.086;8.598;2023-02-05T04:22:22;102690.00000000001;;;2.7;88.4
76987;BME280;65922;50.086;8.598;2023-02-05T04:23:22;102690.00000000001;;;2.7;88.3
76987;BME280;65922;50.086;8.598;2023-02-05T04:24:22;102680;;;2.7;88.2
76987;BME280;65922;50.086;8.598;2023-02-05T04:25:22;102680;;;2.6;88.2
76987;BME280;65922;50.086;8.598;2023-02-05T04:26:22;102680;;;2.6;88
76987;BME280;65922;50.086;8.598;2023-02-05T04:27:22;102670;;;2.7;88
76987;BME280;65922;50.086;8.598;2023-02-05T04:28:22;102680;;;2.7;88
76987;BME280;65922;50.086;8.598;2023-02-05T04:29:22;102680;;;2.7;87.8
76987;BME280;65922;50.086;8.598;2023-02-05T04:30:22;102680;;;2.7;88
76987;BME280;65922;50.086;8.598;2023-02-05T04:31:22;102680;;;2.7;88.2
76987;BME280;65922;50.086;8.598;2023-02-05T04:32:22;102680;;;2.7;88.5
76987;BME280;65922;50.086;8.598;2023-02-05T04:33:22;102670;;;2.6;88.5
76987;BME280;65922;50.086;8.598;2023-02-05T04:34:22;102680;;;2.6;88.5
76987;BME280;65922;50.086;8.598;2023-02-05T04:35:22;102670;;;2.6;88.6
76987;BME280;65922;50.086;8.598;2023-02-05T04:36:22;102680;;;2.6;88.7
76987;BME280;65922;50.086;8.598;2023-02-05T04:37:22;102670;;;2.6;88.8
76987;BME280;65922;50.086;8.598;2023-02-05T04:38:22;102670;;;2.6;88.6
76987;BME280;65922;50.086;8.598;2023-02-05T04:39:22;102670;;;2.6;88.4
76987;BME280;65922;50.086;8.598;2023-02-05T04:40:22;102670;;;2.6;88.3
76987;BME280;65922;50.086;8.598;2023-02-05T04:41:22;102680;;;2.7;88.2
76987;BME280;65922;50.086;8.598;2023-02-05T04:42:22;102670;;;2.7;88.4
76987;BME280;65922;50.086;8.598;2023-02-05T04:43:22;102670;;;2.7;88.3
76987;BME280;65922;50.086;8.598;2023-02-05T04:44:22;102670;;;2.7;88.4
76987;BME280;65922;50.086;8.598;2023-02-05T04:45:22;102659.99999999999;;;2.7;88.5
76987;BME280;65922;50.086;8.598;2023-02-05T04:46:22;102650;;;2.7;88.5
76987;BME280;65922;50.086;8.598;2023-02-05T04:47:22;102650;;;2.7;88.3
76987;BME280;65922;50.086;8.598;2023-02-05T04:48:22;102650;;;2.7;88.1
76987;BME280;65922;50.086;8.598;2023-02-05T04:49:22;102640.00000000001;;;2.7;88
76987;BME280;65922;50.086;8.598;2023-02-05T04:50:22;102640.00000000001;;;2.7;88.1
76987;BME280;65922;50.086;8.598;2023-02-05T04:51:22;102640.00000000001;;;2.7;88.1
76987;BME280;65922;50.086;8.598;2023-02-05T04:52:22;102640.00000000001;;;2.7;88.1
76987;BME280;65922;50.086;8.598;2023-02-05T04:53:22;102640.00000000001;;;2.7;88.3
76987;BME280;65922;50.086;8.598;2023-02-05T04:54:22;102650;;;2.7;88.2
76987;BME280;65922;50.086;8.598;2023-02-05T04:55:22;102640.00000000001;;;2.7;88
76987;BME280;65922;50.086;8.598;2023-02-05T04:56:22;102650;;;2.7;87.8
76987;BME280;65922;50.086;8.598;2023-02-05T04:57:22;102640.00000000001;;;2.7;88
76987;BME280;65922;50.086;8.598;2023-02-05T04:58:22;102650;;;2.7;88
76987;BME280;65922;50.086;8.598;2023-02-05T04:59:22;102650;;;2.7;88.1
76987;BME280;65922;50.086;8.598;2023-02-05T05:00:22;102650;;;2.7;88.2
76987;BME280;65922;50.086;8.598;2023-02-05T05:01:22;102650;;;2.7;88.2
76987;BME280;65922;50.086;8.598;2023-02-05T05:02:22;102650;;;2.7;88.3
76987;BME280;65922;50.086;8.598;2023-02-05T05:03:22;102650;;;2.7;88.4
76987;BME280;65922;50.086;8.598;2023-02-05T05:04:22;102640.00000000001;;;2.7;88.6
76987;BME280;65922;50.086;8.598;2023-02-05T05:05:22;102650;;;2.8;88.8
76987;BME280;65922;50.086;8.598;2023-02-05T05:06:22;102650;;;2.7;88.7
76987;BME280;65922;50.086;8.598;2023-02-05T05:07:22;102659.99999999999;;;2.7;88.5
76987;BME280;65922;50.086;8.598;2023-02-05T05:08:22;102659.99999999999;;;2.7;88.1
76987;BME280;65922;50.086;8.598;2023-02-05T05:09:22;102659.99999999999;;;2.7;88.2
76987;BME280;65922;50.086;8.598;2023-02-05T05:10:22;102659.99999999999;;;2.7;88.3
76987;BME280;65922;50.086;8.598;2023-02-05T05:11:22;102659.99999999999;;;2.7;88.6
76987;BME280;65922;50.086;8.598;2023-02-05T05:12:22;102659.99999999999;;;2.7;88.5
76987;BME280;65922;50.086;8.598;2023-02-05T05:13:22;102670;;;2.7;88.4
76987;BME280;65922;50.086;8.598;2023-02-05T05:14:22;102670;;;2.7;88.5
76987;BME280;65922;50.086;8.598;2023-02-05T05:15:22;102670;;;2.8;88.8
76987;BME280;65922;50.086;8.598;2023-02-05T05:16:22;102670;;;2.8;88.8
76987;BME280;65922;50.086;8.598;2023-02-05T05:17:22;102670;;;2.8;88.7
76987;BME280;65922;50.086;8.598;2023-02-05T05:18:22;102680;;;2.8;88.6
76987;BME280;65922;50.086;8.598;2023-02-05T05:19:22;102680;;;2.7;88.5
76987;BME280;65922;50.086;8.598;2023-02-05T05:20:22;102670;;;2.7;88.6